RYR221 EDDL-LIML
Flight info
| Callsign | RYR221 |
|---|---|
| Flight time | N/A |
| Altitude | 35000 |
| Route | DODEN7Z DODEN Y852 NATOR DCT TRA DCT RIPUS DCT GERSA DCT SOSON DCT ODINA |
| Aircraft | B738/M-SDE2E3FGHIRWXY/LB1 |
Departure
| Time | 2026-05-05 14:35 |
|---|---|
| Airport | Düsseldorf Airport (EDDL) |
Arrival
| Time | N/A |
|---|---|
| Airport | Milano Linate Airport (LIML) |
| Time | Latitude | Longitude | Altitude | Speed | Heading |
|---|---|---|---|---|---|
| 2026-05-05 13:54 | 51.28058 | 6.76724 | 117 ft | 0 kts | 276° |
| 2026-05-05 14:22 | 51.28058 | 6.76736 | 117 ft | 4 kts | 284° |
| 2026-05-05 14:23 | 51.28045 | 6.76766 | 116 ft | 4 kts | 340° |
| 2026-05-05 14:23 | 51.28025 | 6.76770 | 116 ft | 0 kts | 18° |
| 2026-05-05 14:29 | 51.28028 | 6.76772 | 117 ft | 2 kts | 18° |
| 2026-05-05 14:29 | 51.28070 | 6.76793 | 113 ft | 10 kts | 17° |
| 2026-05-05 14:29 | 51.28157 | 6.76832 | 115 ft | 14 kts | 10° |
| 2026-05-05 14:29 | 51.28254 | 6.76851 | 117 ft | 14 kts | 7° |
| 2026-05-05 14:30 | 51.28346 | 6.76867 | 117 ft | 13 kts | 4° |
| 2026-05-05 14:30 | 51.28426 | 6.76804 | 115 ft | 13 kts | 323° |
| 2026-05-05 14:30 | 51.28445 | 6.76682 | 114 ft | 13 kts | 236° |
| 2026-05-05 14:30 | 51.28388 | 6.76561 | 117 ft | 15 kts | 233° |
| 2026-05-05 14:31 | 51.28323 | 6.76424 | 117 ft | 16 kts | 232° |
| 2026-05-05 14:31 | 51.28256 | 6.76283 | 116 ft | 16 kts | 233° |
| 2026-05-05 14:31 | 51.28189 | 6.76146 | 116 ft | 15 kts | 232° |
| 2026-05-05 14:31 | 51.28126 | 6.76012 | 117 ft | 16 kts | 233° |
| 2026-05-05 14:32 | 51.28045 | 6.75842 | 112 ft | 22 kts | 233° |
| 2026-05-05 14:32 | 51.27939 | 6.75620 | 117 ft | 27 kts | 232° |
| 2026-05-05 14:32 | 51.27847 | 6.75424 | 114 ft | 15 kts | 243° |
| 2026-05-05 14:32 | 51.27890 | 6.75309 | 116 ft | 7 kts | 332° |
| 2026-05-05 14:33 | 51.27891 | 6.75308 | 116 ft | 0 kts | 332° |
| 2026-05-05 14:33 | 51.27899 | 6.75302 | 116 ft | 4 kts | 335° |
| 2026-05-05 14:34 | 51.27947 | 6.75270 | 112 ft | 12 kts | 343° |
| 2026-05-05 14:34 | 51.28025 | 6.75331 | 113 ft | 3 kts | 52° |
| 2026-05-05 14:34 | 51.28025 | 6.75332 | 113 ft | 0 kts | 52° |
| 2026-05-05 14:34 | 51.28031 | 6.75343 | 113 ft | 10 kts | 52° |
| 2026-05-05 14:35 | 51.28231 | 6.75763 | 113 ft | 84 kts | 53° |
| 2026-05-05 14:35 | 51.28716 | 6.76774 | 118 ft | 146 kts | 53° |
| 2026-05-05 14:35 | 51.29369 | 6.78225 | 575 ft | 162 kts | 50° |
| 2026-05-05 14:35 | 51.29990 | 6.79626 | 1616 ft | 144 kts | 50° |
| 2026-05-05 14:36 | 51.30595 | 6.80852 | 2412 ft | 144 kts | 50° |
| 2026-05-05 14:36 | 51.31250 | 6.82198 | 2690 ft | 169 kts | 51° |
| 2026-05-05 14:36 | 51.32028 | 6.83816 | 2960 ft | 196 kts | 52° |
| 2026-05-05 14:36 | 51.32899 | 6.85637 | 3165 ft | 218 kts | 52° |
| 2026-05-05 14:37 | 51.33845 | 6.87683 | 3421 ft | 235 kts | 54° |
| 2026-05-05 14:37 | 51.34804 | 6.89858 | 3872 ft | 243 kts | 58° |
| 2026-05-05 14:37 | 51.35296 | 6.92416 | 4344 ft | 250 kts | 89° |
| 2026-05-05 14:37 | 51.35106 | 6.95297 | 4678 ft | 267 kts | 100° |
| 2026-05-05 14:38 | 51.34788 | 6.98253 | 5007 ft | 274 kts | 101° |
| 2026-05-05 14:38 | 51.34465 | 7.01234 | 5008 ft | 274 kts | 100° |
| 2026-05-05 14:38 | 51.34146 | 7.04256 | 4997 ft | 272 kts | 100° |
| 2026-05-05 14:38 | 51.33837 | 7.07259 | 5182 ft | 275 kts | 100° |
| 2026-05-05 14:39 | 51.33530 | 7.10267 | 5936 ft | 277 kts | 101° |
| 2026-05-05 14:39 | 51.33219 | 7.13325 | 6738 ft | 278 kts | 101° |
| 2026-05-05 14:39 | 51.32882 | 7.16395 | 7481 ft | 280 kts | 108° |
| 2026-05-05 14:39 | 51.31961 | 7.19050 | 8203 ft | 276 kts | 135° |
| 2026-05-05 14:40 | 51.30612 | 7.21249 | 9004 ft | 277 kts | 137° |
| 2026-05-05 14:40 | 51.29219 | 7.23426 | 9682 ft | 282 kts | 137° |
| 2026-05-05 14:40 | 51.27822 | 7.25597 | 10376 ft | 284 kts | 137° |
| 2026-05-05 14:40 | 51.26393 | 7.27828 | 11072 ft | 287 kts | 137° |
| 2026-05-05 14:41 | 51.24963 | 7.30068 | 11735 ft | 291 kts | 137° |
| 2026-05-05 14:41 | 51.23505 | 7.32358 | 12467 ft | 294 kts | 137° |
| 2026-05-05 14:41 | 51.22058 | 7.34634 | 13212 ft | 297 kts | 137° |
| 2026-05-05 14:41 | 51.20573 | 7.36972 | 13944 ft | 300 kts | 137° |
| 2026-05-05 14:42 | 51.19073 | 7.39331 | 14615 ft | 303 kts | 137° |
| 2026-05-05 14:42 | 51.17563 | 7.41704 | 15297 ft | 306 kts | 137° |
| 2026-05-05 14:42 | 51.16049 | 7.44080 | 15977 ft | 309 kts | 137° |
| 2026-05-05 14:42 | 51.14493 | 7.46497 | 16660 ft | 313 kts | 137° |
| 2026-05-05 14:43 | 51.12932 | 7.48887 | 17328 ft | 316 kts | 138° |
| 2026-05-05 14:43 | 51.11326 | 7.51334 | 18009 ft | 319 kts | 138° |
| 2026-05-05 14:43 | 51.09707 | 7.53802 | 18616 ft | 323 kts | 138° |
| 2026-05-05 14:43 | 51.08097 | 7.56255 | 19229 ft | 324 kts | 138° |
| 2026-05-05 14:44 | 51.06465 | 7.58742 | 19842 ft | 326 kts | 138° |
| 2026-05-05 14:44 | 51.04818 | 7.61252 | 20422 ft | 329 kts | 138° |
| 2026-05-05 14:44 | 51.03150 | 7.63792 | 20997 ft | 332 kts | 138° |
| 2026-05-05 14:44 | 51.01489 | 7.66319 | 21586 ft | 334 kts | 138° |
| 2026-05-05 14:45 | 50.99791 | 7.68898 | 22180 ft | 337 kts | 138° |
| 2026-05-05 14:45 | 50.98099 | 7.71464 | 22758 ft | 339 kts | 138° |
| 2026-05-05 14:45 | 50.96359 | 7.74021 | 23322 ft | 341 kts | 143° |
| 2026-05-05 14:45 | 50.94434 | 7.76176 | 23786 ft | 342 kts | 149° |
| 2026-05-05 14:46 | 50.92386 | 7.78160 | 24291 ft | 343 kts | 151° |
| 2026-05-05 14:46 | 50.90317 | 7.80098 | 24777 ft | 345 kts | 151° |
| 2026-05-05 14:46 | 50.88272 | 7.82022 | 25249 ft | 347 kts | 151° |
| 2026-05-05 14:46 | 50.86181 | 7.84015 | 25705 ft | 349 kts | 151° |
| 2026-05-05 14:47 | 50.84090 | 7.86032 | 26170 ft | 351 kts | 151° |
| 2026-05-05 14:47 | 50.82038 | 7.88026 | 26690 ft | 351 kts | 151° |
| 2026-05-05 14:47 | 50.79961 | 7.90053 | 27312 ft | 347 kts | 151° |
| 2026-05-05 14:47 | 50.77911 | 7.92057 | 27926 ft | 344 kts | 151° |
| 2026-05-05 14:48 | 50.75898 | 7.94025 | 28460 ft | 343 kts | 151° |
| 2026-05-05 14:48 | 50.73864 | 7.96010 | 28996 ft | 342 kts | 151° |
| 2026-05-05 14:48 | 50.72515 | 7.97326 | 29334 ft | 341 kts | 152° |
| 2026-05-05 14:48 | 50.69820 | 7.99951 | 29838 ft | 344 kts | 152° |
| 2026-05-05 14:49 | 50.68462 | 8.01273 | 30110 ft | 344 kts | 152° |
| 2026-05-05 14:49 | 50.66433 | 8.03249 | 30583 ft | 340 kts | 152° |
| 2026-05-05 14:49 | 50.64414 | 8.05212 | 31048 ft | 338 kts | 152° |
| 2026-05-05 14:49 | 50.62435 | 8.07132 | 31426 ft | 337 kts | 152° |
| 2026-05-05 14:50 | 50.60377 | 8.08926 | 31784 ft | 333 kts | 164° |
| 2026-05-05 14:50 | 50.58172 | 8.09682 | 32156 ft | 326 kts | 176° |
| 2026-05-05 14:50 | 50.55923 | 8.10004 | 32671 ft | 321 kts | 177° |
| 2026-05-05 14:50 | 50.53690 | 8.10269 | 33072 ft | 320 kts | 178° |
| 2026-05-05 14:51 | 50.51478 | 8.10523 | 33472 ft | 320 kts | 178° |
| 2026-05-05 14:51 | 50.49251 | 8.10788 | 33888 ft | 318 kts | 178° |
| 2026-05-05 14:51 | 50.47050 | 8.11059 | 34194 ft | 317 kts | 177° |
| 2026-05-05 14:51 | 50.44871 | 8.11333 | 34370 ft | 319 kts | 177° |
| 2026-05-05 14:52 | 50.42683 | 8.11613 | 34551 ft | 320 kts | 177° |
| 2026-05-05 14:52 | 50.40426 | 8.11904 | 34522 ft | 330 kts | 177° |
| 2026-05-05 14:52 | 50.38094 | 8.12205 | 34392 ft | 341 kts | 177° |
| 2026-05-05 14:52 | 50.35726 | 8.12513 | 34443 ft | 347 kts | 176° |
| 2026-05-05 14:53 | 50.30836 | 8.13153 | 34533 ft | 359 kts | 176° |
| 2026-05-05 14:53 | 50.25770 | 8.13815 | 34755 ft | 367 kts | 176° |
| 2026-05-05 14:54 | 50.20617 | 8.14487 | 35001 ft | 375 kts | 176° |
| 2026-05-05 14:54 | 50.18037 | 8.14823 | 35211 ft | 375 kts | 176° |
| 2026-05-05 14:54 | 50.15420 | 8.15163 | 35442 ft | 375 kts | 176° |
| 2026-05-05 14:55 | 50.12796 | 8.15506 | 35661 ft | 376 kts | 176° |
| 2026-05-05 14:55 | 50.10221 | 8.15858 | 35882 ft | 376 kts | 176° |
| 2026-05-05 14:55 | 50.07603 | 8.16225 | 36106 ft | 376 kts | 176° |
| 2026-05-05 14:55 | 50.04994 | 8.16593 | 36337 ft | 375 kts | 176° |
| 2026-05-05 14:56 | 50.02422 | 8.16955 | 36562 ft | 375 kts | 176° |
| 2026-05-05 14:56 | 49.99812 | 8.17322 | 36792 ft | 374 kts | 176° |
| 2026-05-05 14:56 | 49.94588 | 8.18050 | 36874 ft | 381 kts | 176° |
| 2026-05-05 14:57 | 49.89247 | 8.18792 | 36843 ft | 390 kts | 176° |
| 2026-05-05 14:57 | 49.83804 | 8.19546 | 36849 ft | 398 kts | 176° |
| 2026-05-05 14:58 | 49.78219 | 8.20318 | 36849 ft | 406 kts | 176° |
| 2026-05-05 14:58 | 49.72536 | 8.21102 | 36838 ft | 413 kts | 176° |
| 2026-05-05 14:59 | 49.66771 | 8.21895 | 36838 ft | 421 kts | 176° |
| 2026-05-05 14:59 | 49.60861 | 8.22707 | 36855 ft | 427 kts | 176° |
| 2026-05-05 15:00 | 49.55933 | 8.23383 | 36847 ft | 430 kts | 176° |
| 2026-05-05 15:00 | 49.48949 | 8.24338 | 36848 ft | 431 kts | 176° |
| 2026-05-05 15:01 | 49.42966 | 8.25153 | 36829 ft | 432 kts | 176° |
| 2026-05-05 15:01 | 49.36982 | 8.25967 | 36854 ft | 432 kts | 176° |
| 2026-05-05 15:02 | 49.31019 | 8.26776 | 36853 ft | 432 kts | 176° |
| 2026-05-05 15:02 | 49.25036 | 8.27585 | 36836 ft | 431 kts | 176° |
| 2026-05-05 15:03 | 49.19077 | 8.28390 | 36828 ft | 430 kts | 176° |
| 2026-05-05 15:03 | 49.13095 | 8.29195 | 36845 ft | 430 kts | 176° |
| 2026-05-05 15:04 | 49.07163 | 8.29992 | 36860 ft | 430 kts | 176° |
| 2026-05-05 15:04 | 49.01175 | 8.30795 | 36847 ft | 430 kts | 176° |
| 2026-05-05 15:05 | 48.92244 | 8.31283 | 36840 ft | 429 kts | 181° |
| 2026-05-05 15:06 | 48.86286 | 8.31296 | 36845 ft | 429 kts | 181° |
| 2026-05-05 15:06 | 48.80291 | 8.31335 | 36832 ft | 430 kts | 180° |
| 2026-05-05 15:07 | 48.75809 | 8.31383 | 36853 ft | 430 kts | 181° |
| 2026-05-05 15:07 | 48.70557 | 8.31447 | 36837 ft | 430 kts | 180° |
| 2026-05-05 15:08 | 48.64599 | 8.31521 | 36835 ft | 429 kts | 180° |
| 2026-05-05 15:08 | 48.58621 | 8.31595 | 36857 ft | 429 kts | 180° |
| 2026-05-05 15:09 | 48.52669 | 8.31668 | 36841 ft | 429 kts | 180° |
| 2026-05-05 15:09 | 48.46683 | 8.31740 | 36855 ft | 429 kts | 180° |
| 2026-05-05 15:10 | 48.40725 | 8.31813 | 36844 ft | 428 kts | 180° |
| 2026-05-05 15:10 | 48.34778 | 8.31885 | 36838 ft | 428 kts | 181° |
| 2026-05-05 15:11 | 48.28842 | 8.31957 | 36846 ft | 428 kts | 181° |
| 2026-05-05 15:11 | 48.22853 | 8.32029 | 36853 ft | 428 kts | 181° |
| 2026-05-05 15:12 | 48.16893 | 8.32145 | 36842 ft | 429 kts | 178° |
| 2026-05-05 15:12 | 48.11001 | 8.33420 | 36853 ft | 430 kts | 172° |
| 2026-05-05 15:13 | 48.05126 | 8.34941 | 36863 ft | 431 kts | 172° |
| 2026-05-05 15:13 | 47.99187 | 8.36425 | 36865 ft | 432 kts | 172° |
| 2026-05-05 15:14 | 47.93244 | 8.37869 | 36873 ft | 434 kts | 173° |
| 2026-05-05 15:14 | 47.87264 | 8.39310 | 36855 ft | 436 kts | 173° |
| 2026-05-05 15:15 | 47.81281 | 8.40751 | 36865 ft | 435 kts | 173° |
| 2026-05-05 15:15 | 47.75340 | 8.42179 | 36862 ft | 434 kts | 173° |
| 2026-05-05 15:16 | 47.69367 | 8.43610 | 36849 ft | 433 kts | 174° |
| 2026-05-05 15:16 | 47.63428 | 8.44642 | 36852 ft | 430 kts | 177° |
| 2026-05-05 15:17 | 47.57447 | 8.45450 | 36867 ft | 430 kts | 177° |
| 2026-05-05 15:17 | 47.51519 | 8.46277 | 36853 ft | 430 kts | 177° |
| 2026-05-05 15:18 | 47.45537 | 8.47146 | 36855 ft | 430 kts | 177° |
| 2026-05-05 15:18 | 47.39618 | 8.48014 | 36861 ft | 429 kts | 177° |
| 2026-05-05 15:19 | 47.33651 | 8.48886 | 36865 ft | 430 kts | 177° |
| 2026-05-05 15:19 | 47.27703 | 8.49752 | 36850 ft | 431 kts | 177° |
| 2026-05-05 15:20 | 47.21714 | 8.50622 | 36870 ft | 432 kts | 178° |
| 2026-05-05 15:20 | 47.15779 | 8.51484 | 36832 ft | 422 kts | 178° |
| 2026-05-05 15:20 | 47.12898 | 8.51905 | 36831 ft | 407 kts | 178° |
| 2026-05-05 15:21 | 47.10120 | 8.52308 | 36826 ft | 393 kts | 178° |
| 2026-05-05 15:21 | 47.07470 | 8.52692 | 36824 ft | 380 kts | 178° |
| 2026-05-05 15:21 | 47.04871 | 8.53067 | 36832 ft | 370 kts | 179° |
| 2026-05-05 15:22 | 46.99724 | 8.53803 | 36881 ft | 378 kts | 179° |